sensor_id;sensor_type;location;lat;lon;timestamp;temperature;humidity
60727;DHT22;46577;49.004;12.120;2023-04-03T00:01:06;4.70;99.90
60727;DHT22;46577;49.004;12.120;2023-04-03T00:03:32;4.60;99.90
60727;DHT22;46577;49.004;12.120;2023-04-03T00:05:58;5.90;99.90
60727;DHT22;46577;49.004;12.120;2023-04-03T00:08:24;4.60;99.90
60727;DHT22;46577;49.004;12.120;2023-04-03T00:10:49;4.60;99.90
60727;DHT22;46577;49.004;12.120;2023-04-03T00:13:15;4.70;99.90
60727;DHT22;46577;49.004;12.120;2023-04-03T00:15:41;4.70;99.90
60727;DHT22;46577;49.004;12.120;2023-04-03T00:18:07;4.60;99.90
60727;DHT22;46577;49.004;12.120;2023-04-03T00:20:33;4.60;99.90
60727;DHT22;46577;49.004;12.120;2023-04-03T00:22:59;4.70;99.90
60727;DHT22;46577;49.004;12.120;2023-04-03T00:25:25;4.60;99.90
60727;DHT22;46577;49.004;12.120;2023-04-03T00:27:51;4.50;99.90
60727;DHT22;46577;49.004;12.120;2023-04-03T00:30:19;4.50;99.90
60727;DHT22;46577;49.004;12.120;2023-04-03T00:32:46;4.50;99.90
60727;DHT22;46577;49.004;12.120;2023-04-03T00:35:12;4.60;99.90
60727;DHT22;46577;49.004;12.120;2023-04-03T00:37:41;4.60;99.90
60727;DHT22;46577;49.004;12.120;2023-04-03T00:40:08;4.70;99.90
60727;DHT22;46577;49.004;12.120;2023-04-03T00:42:36;4.60;99.90
60727;DHT22;46577;49.004;12.120;2023-04-03T00:47:28;4.60;99.90
60727;DHT22;46577;49.004;12.120;2023-04-03T00:49:55;4.50;99.90
60727;DHT22;46577;49.004;12.120;2023-04-03T00:52:23;4.50;99.90
60727;DHT22;46577;49.004;12.120;2023-04-03T00:54:52;4.50;99.90
60727;DHT22;46577;49.004;12.120;2023-04-03T00:57:18;4.50;99.90
60727;DHT22;46577;49.004;12.120;2023-04-03T00:59:47;4.50;99.90
60727;DHT22;46577;49.004;12.120;2023-04-03T01:02:14;4.50;99.90
60727;DHT22;46577;49.004;12.120;2023-04-03T01:04:42;4.50;99.90
60727;DHT22;46577;49.004;12.120;2023-04-03T01:09:37;4.50;99.90
60727;DHT22;46577;49.004;12.120;2023-04-03T01:12:22;4.60;99.90
60727;DHT22;46577;49.004;12.120;2023-04-03T01:14:53;3.30;99.90
60727;DHT22;46577;49.004;12.120;2023-04-03T01:25:45;4.50;99.90
60727;DHT22;46577;49.004;12.120;2023-04-03T01:28:18;4.50;99.90
60727;DHT22;46577;49.004;12.120;2023-04-03T01:31:15;4.50;99.90
60727;DHT22;46577;49.004;12.120;2023-04-03T01:33:40;4.40;99.90
60727;DHT22;46577;49.004;12.120;2023-04-03T01:36:07;4.40;99.90
60727;DHT22;46577;49.004;12.120;2023-04-03T01:38:33;4.40;99.90
60727;DHT22;46577;49.004;12.120;2023-04-03T01:40:58;4.30;99.90
60727;DHT22;46577;49.004;12.120;2023-04-03T01:43:24;4.30;99.90
60727;DHT22;46577;49.004;12.120;2023-04-03T01:45:49;4.40;99.90
60727;DHT22;46577;49.004;12.120;2023-04-03T01:48:15;4.30;99.90
60727;DHT22;46577;49.004;12.120;2023-04-03T01:50:41;4.30;99.90
60727;DHT22;46577;49.004;12.120;2023-04-03T01:53:07;4.40;99.90
60727;DHT22;46577;49.004;12.120;2023-04-03T01:55:33;4.40;99.90
60727;DHT22;46577;49.004;12.120;2023-04-03T01:57:58;4.30;99.90
60727;DHT22;46577;49.004;12.120;2023-04-03T02:00:24;4.30;99.90
60727;DHT22;46577;49.004;12.120;2023-04-03T02:02:49;4.30;99.90
60727;DHT22;46577;49.004;12.120;2023-04-03T02:05:15;4.50;99.90
60727;DHT22;46577;49.004;12.120;2023-04-03T02:07:41;4.40;99.90
60727;DHT22;46577;49.004;12.120;2023-04-03T02:10:07;4.40;99.90
60727;DHT22;46577;49.004;12.120;2023-04-03T02:12:32;4.30;99.90
60727;DHT22;46577;49.004;12.120;2023-04-03T02:14:58;4.30;99.90
60727;DHT22;46577;49.004;12.120;2023-04-03T02:17:24;4.30;99.90
60727;DHT22;46577;49.004;12.120;2023-04-03T02:19:49;4.20;99.90
60727;DHT22;46577;49.004;12.120;2023-04-03T02:22:15;4.30;99.90
60727;DHT22;46577;49.004;12.120;2023-04-03T02:24:40;4.30;99.90
60727;DHT22;46577;49.004;12.120;2023-04-03T02:27:06;4.30;99.90
60727;DHT22;46577;49.004;12.120;2023-04-03T02:29:32;4.30;99.90
60727;DHT22;46577;49.004;12.120;2023-04-03T02:31:58;4.30;99.90
60727;DHT22;46577;49.004;12.120;2023-04-03T02:34:24;4.30;99.90
60727;DHT22;46577;49.004;12.120;2023-04-03T02:36:49;4.40;99.90
60727;DHT22;46577;49.004;12.120;2023-04-03T02:39:15;4.40;99.90
60727;DHT22;46577;49.004;12.120;2023-04-03T02:41:41;4.40;99.90
60727;DHT22;46577;49.004;12.120;2023-04-03T02:44:09;4.40;99.90
60727;DHT22;46577;49.004;12.120;2023-04-03T02:46:35;4.30;99.90
60727;DHT22;46577;49.004;12.120;2023-04-03T02:49:01;4.20;99.90
60727;DHT22;46577;49.004;12.120;2023-04-03T02:51:26;4.10;99.90
60727;DHT22;46577;49.004;12.120;2023-04-03T02:53:52;4.20;99.90
60727;DHT22;46577;49.004;12.120;2023-04-03T02:56:18;4.20;99.90
60727;DHT22;46577;49.004;12.120;2023-04-03T02:58:44;4.20;99.90
60727;DHT22;46577;49.004;12.120;2023-04-03T03:01:10;4.20;99.90
60727;DHT22;46577;49.004;12.120;2023-04-03T03:03:36;4.10;99.90
60727;DHT22;46577;49.004;12.120;2023-04-03T03:06:08;4.10;99.90
60727;DHT22;46577;49.004;12.120;2023-04-03T03:08:34;4.20;99.90
60727;DHT22;46577;49.004;12.120;2023-04-03T03:11:00;4.10;99.90
60727;DHT22;46577;49.004;12.120;2023-04-03T03:13:25;4.10;99.90
60727;DHT22;46577;49.004;12.120;2023-04-03T03:15:51;4.90;99.90
60727;DHT22;46577;49.004;12.120;2023-04-03T03:18:17;4.10;99.90
60727;DHT22;46577;49.004;12.120;2023-04-03T03:20:42;4.10;99.90
60727;DHT22;46577;49.004;12.120;2023-04-03T03:23:08;4.20;99.90
60727;DHT22;46577;49.004;12.120;2023-04-03T03:25:38;4.20;99.90
60727;DHT22;46577;49.004;12.120;2023-04-03T03:28:04;4.20;99.90
60727;DHT22;46577;49.004;12.120;2023-04-03T03:30:30;4.20;99.90
60727;DHT22;46577;49.004;12.120;2023-04-03T03:32:55;4.20;99.90
60727;DHT22;46577;49.004;12.120;2023-04-03T03:35:21;4.20;99.90
60727;DHT22;46577;49.004;12.120;2023-04-03T03:37:46;4.20;99.90
60727;DHT22;46577;49.004;12.120;2023-04-03T03:40:12;4.20;99.90
60727;DHT22;46577;49.004;12.120;2023-04-03T03:42:38;4.20;99.90
60727;DHT22;46577;49.004;12.120;2023-04-03T03:45:05;4.20;99.90
60727;DHT22;46577;49.004;12.120;2023-04-03T03:47:30;4.20;99.90
60727;DHT22;46577;49.004;12.120;2023-04-03T03:49:56;2.30;99.90
60727;DHT22;46577;49.004;12.120;2023-04-03T03:52:22;4.20;99.90
60727;DHT22;46577;49.004;12.120;2023-04-03T03:54:47;4.20;99.90
60727;DHT22;46577;49.004;12.120;2023-04-03T03:57:13;4.10;99.90
60727;DHT22;46577;49.004;12.120;2023-04-03T03:59:38;4.20;99.90
60727;DHT22;46577;49.004;12.120;2023-04-03T04:02:07;4.10;99.90
60727;DHT22;46577;49.004;12.120;2023-04-03T04:04:32;4.10;99.90
60727;DHT22;46577;49.004;12.120;2023-04-03T04:06:58;4.10;99.90
60727;DHT22;46577;49.004;12.120;2023-04-03T04:09:26;4.10;99.90
60727;DHT22;46577;49.004;12.120;2023-04-03T04:11:51;4.10;99.90
60727;DHT22;46577;49.004;12.120;2023-04-03T04:14:17;4.10;99.90
60727;DHT22;46577;49.004;12.120;2023-04-03T04:16:43;4.10;99.90
60727;DHT22;46577;49.004;12.120;2023-04-03T04:19:08;4.10;99.90
60727;DHT22;46577;49.004;12.120;2023-04-03T04:21:34;4.20;99.90
60727;DHT22;46577;49.004;12.120;2023-04-03T04:24:00;4.20;99.90
60727;DHT22;46577;49.004;12.120;2023-04-03T04:26:25;4.20;99.90
60727;DHT22;46577;49.004;12.120;2023-04-03T04:28:51;4.20;99.90
60727;DHT22;46577;49.004;12.120;2023-04-03T04:31:16;4.20;99.90
60727;DHT22;46577;49.004;12.120;2023-04-03T04:33:42;4.20;99.90
60727;DHT22;46577;49.004;12.120;2023-04-03T04:36:08;4.10;99.90
60727;DHT22;46577;49.004;12.120;2023-04-03T04:38:33;4.10;99.90
60727;DHT22;46577;49.004;12.120;2023-04-03T04:40:59;4.20;99.90
60727;DHT22;46577;49.004;12.120;2023-04-03T04:43:25;4.10;99.90
60727;DHT22;46577;49.004;12.120;2023-04-03T04:46:00;4.10;99.90
60727;DHT22;46577;49.004;12.120;2023-04-03T04:48:26;4.00;99.90
60727;DHT22;46577;49.004;12.120;2023-04-03T04:50:52;4.00;99.90
60727;DHT22;46577;49.004;12.120;2023-04-03T04:53:17;3.90;99.90
60727;DHT22;46577;49.004;12.120;2023-04-03T04:55:43;4.00;99.90
60727;DHT22;46577;49.004;12.120;2023-04-03T04:58:08;4.00;99.90
60727;DHT22;46577;49.004;12.120;2023-04-03T05:00:34;4.00;99.90
60727;DHT22;46577;49.004;12.120;2023-04-03T05:03:00;3.90;99.90
60727;DHT22;46577;49.004;12.120;2023-04-03T05:05:25;4.00;99.90
60727;DHT22;46577;49.004;12.120;2023-04-03T05:07:51;3.90;99.90
60727;DHT22;46577;49.004;12.120;2023-04-03T05:10:16;3.90;99.90
60727;DHT22;46577;49.004;12.120;2023-04-03T05:12:42;3.90;99.90
60727;DHT22;46577;49.004;12.120;2023-04-03T05:15:08;3.90;99.90
60727;DHT22;46577;49.004;12.120;2023-04-03T05:17:33;4.00;99.90
60727;DHT22;46577;49.004;12.120;2023-04-03T05:19:59;4.00;99.90
60727;DHT22;46577;49.004;12.120;2023-04-03T05:22:25;4.00;99.90
60727;DHT22;46577;49.004;12.120;2023-04-03T05:24:50;4.00;99.90
60727;DHT22;46577;49.004;12.120;2023-04-03T05:27:16;4.00;99.90
60727;DHT22;46577;49.004;12.120;2023-04-03T05:29:42;4.10;99.90
60727;DHT22;46577;49.004;12.120;2023-04-03T05:32:09;4.10;99.90
60727;DHT22;46577;49.004;12.120;2023-04-03T05:34:35;4.10;99.90
60727;DHT22;46577;49.004;12.120;2023-04-03T05:37:01;4.20;99.90
60727;DHT22;46577;49.004;12.120;2023-04-03T05:39:28;4.10;99.90
60727;DHT22;46577;49.004;12.120;2023-04-03T05:41:54;4.10;99.90
60727;DHT22;46577;49.004;12.120;2023-04-03T05:44:19;4.00;99.90
60727;DHT22;46577;49.004;12.120;2023-04-03T05:46:45;4.00;99.90
60727;DHT22;46577;49.004;12.120;2023-04-03T05:49:10;4.00;99.90
60727;DHT22;46577;49.004;12.120;2023-04-03T05:51:37;3.10;99.90
60727;DHT22;46577;49.004;12.120;2023-04-03T05:54:17;4.00;99.90
60727;DHT22;46577;49.004;12.120;2023-04-03T05:56:44;4.00;99.90
60727;DHT22;46577;49.004;12.120;2023-04-03T05:59:09;4.10;99.90
60727;DHT22;46577;49.004;12.120;2023-04-03T06:01:35;4.00;99.90
60727;DHT22;46577;49.004;12.120;2023-04-03T06:04:01;4.00;99.90
60727;DHT22;46577;49.004;12.120;2023-04-03T06:06:52;4.00;99.90
60727;DHT22;46577;49.004;12.120;2023-04-03T06:09:20;4.20;99.90
60727;DHT22;46577;49.004;12.120;2023-04-03T06:11:46;4.20;99.90
60727;DHT22;46577;49.004;12.120;2023-04-03T06:14:12;4.20;99.90
60727;DHT22;46577;49.004;12.120;2023-04-03T06:16:38;4.20;99.90
60727;DHT22;46577;49.004;12.120;2023-04-03T06:19:05;4.40;99.90
60727;DHT22;46577;49.004;12.120;2023-04-03T06:21:31;4.50;99.90
60727;DHT22;46577;49.004;12.120;2023-04-03T06:23:57;4.60;99.90
60727;DHT22;46577;49.004;12.120;2023-04-03T06:26:22;4.50;99.90
60727;DHT22;46577;49.004;12.120;2023-04-03T06:28:48;4.60;99.90
60727;DHT22;46577;49.004;12.120;2023-04-03T06:31:14;4.70;99.90
60727;DHT22;46577;49.004;12.120;2023-04-03T06:33:40;4.70;99.90
60727;DHT22;46577;49.004;12.120;2023-04-03T06:36:06;4.60;99.90
60727;DHT22;46577;49.004;12.120;2023-04-03T06:38:33;4.70;99.90
60727;DHT22;46577;49.004;12.120;2023-04-03T06:40:59;4.70;99.90
60727;DHT22;46577;49.004;12.120;2023-04-03T06:43:25;4.90;99.90
60727;DHT22;46577;49.004;12.120;2023-04-03T06:45:51;4.90;99.90
60727;DHT22;46577;49.004;12.120;2023-04-03T06:48:17;5.10;99.90
60727;DHT22;46577;49.004;12.120;2023-04-03T06:50:43;5.00;99.90
60727;DHT22;46577;49.004;12.120;2023-04-03T06:53:09;5.00;99.90
60727;DHT22;46577;49.004;12.120;2023-04-03T06:55:35;5.00;99.90
60727;DHT22;46577;49.004;12.120;2023-04-03T06:58:01;5.20;99.90
60727;DHT22;46577;49.004;12.120;2023-04-03T07:00:27;5.20;99.90
60727;DHT22;46577;49.004;12.120;2023-04-03T07:02:53;5.10;99.90
60727;DHT22;46577;49.004;12.120;2023-04-03T07:05:18;5.10;99.90
60727;DHT22;46577;49.004;12.120;2023-04-03T07:07:44;5.20;99.90
60727;DHT22;46577;49.004;12.120;2023-04-03T07:10:10;5.20;99.90
60727;DHT22;46577;49.004;12.120;2023-04-03T07:12:37;5.20;99.90
60727;DHT22;46577;49.004;12.120;2023-04-03T07:15:04;5.30;99.90
60727;DHT22;46577;49.004;12.120;2023-04-03T07:17:30;5.20;99.90
60727;DHT22;46577;49.004;12.120;2023-04-03T07:19:56;5.30;99.90
60727;DHT22;46577;49.004;12.120;2023-04-03T07:22:22;5.20;99.90
60727;DHT22;46577;49.004;12.120;2023-04-03T07:24:47;5.10;99.90
60727;DHT22;46577;49.004;12.120;2023-04-03T07:27:13;5.10;99.90
60727;DHT22;46577;49.004;12.120;2023-04-03T07:29:39;5.20;99.90
60727;DHT22;46577;49.004;12.120;2023-04-03T07:32:05;5.10;99.90
60727;DHT22;46577;49.004;12.120;2023-04-03T07:34:32;5.10;99.90
60727;DHT22;46577;49.004;12.120;2023-04-03T07:36:58;5.10;99.90
60727;DHT22;46577;49.004;12.120;2023-04-03T07:39:24;5.00;99.90
60727;DHT22;46577;49.004;12.120;2023-04-03T07:41:50;5.10;99.90
60727;DHT22;46577;49.004;12.120;2023-04-03T07:44:15;5.20;99.90
60727;DHT22;46577;49.004;12.120;2023-04-03T07:46:41;5.20;99.90
60727;DHT22;46577;49.004;12.120;2023-04-03T07:49:07;5.40;99.90
60727;DHT22;46577;49.004;12.120;2023-04-03T07:51:33;5.40;99.90
60727;DHT22;46577;49.004;12.120;2023-04-03T07:53:59;5.40;99.60
60727;DHT22;46577;49.004;12.120;2023-04-03T07:56:24;5.60;98.80
60727;DHT22;46577;49.004;12.120;2023-04-03T07:58:50;5.60;98.20
60727;DHT22;46577;49.004;12.120;2023-04-03T08:01:16;5.60;97.80
60727;DHT22;46577;49.004;12.120;2023-04-03T08:03:41;5.80;97.30
60727;DHT22;46577;49.004;12.120;2023-04-03T08:06:08;5.90;96.80
60727;DHT22;46577;49.004;12.120;2023-04-03T08:08:34;6.00;96.80
60727;DHT22;46577;49.004;12.120;2023-04-03T08:11:01;6.10;96.80
60727;DHT22;46577;49.004;12.120;2023-04-03T08:13:28;6.20;96.00
60727;DHT22;46577;49.004;12.120;2023-04-03T08:15:54;6.60;95.80
60727;DHT22;46577;49.004;12.120;2023-04-03T08:18:22;6.90;93.40
60727;DHT22;46577;49.004;12.120;2023-04-03T08:20:50;7.20;93.30
60727;DHT22;46577;49.004;12.120;2023-04-03T08:23:15;7.80;92.10
60727;DHT22;46577;49.004;12.120;2023-04-03T08:25:42;8.20;90.90
60727;DHT22;46577;49.004;12.120;2023-04-03T08:28:09;8.30;88.10
60727;DHT22;46577;49.004;12.120;2023-04-03T08:30:35;8.40;88.00
60727;DHT22;46577;49.004;12.120;2023-04-03T08:33:01;8.60;82.70
60727;DHT22;46577;49.004;12.120;2023-04-03T08:35:27;9.30;83.70
60727;DHT22;46577;49.004;12.120;2023-04-03T08:37:53;11.50;76.30
60727;DHT22;46577;49.004;12.120;2023-04-03T08:40:19;14.20;58.80
60727;DHT22;46577;49.004;12.120;2023-04-03T08:42:57;15.40;50.20
60727;DHT22;46577;49.004;12.120;2023-04-03T08:45:49;16.50;44.80
60727;DHT22;46577;49.004;12.120;2023-04-03T08:48:20;18.00;38.80
60727;DHT22;46577;49.004;12.120;2023-04-03T08:50:59;18.60;36.30
60727;DHT22;46577;49.004;12.120;2023-04-03T08:53:29;18.70;32.50
60727;DHT22;46577;49.004;12.120;2023-04-03T08:55:58;18.20;33.50
60727;DHT22;46577;49.004;12.120;2023-04-03T08:58:49;19.00;32.10
60727;DHT22;46577;49.004;12.120;2023-04-03T09:03:45;19.70;28.80
60727;DHT22;46577;49.004;12.120;2023-04-03T09:06:18;20.20;28.90
60727;DHT22;46577;49.004;12.120;2023-04-03T09:08:53;20.50;28.90
60727;DHT22;46577;49.004;12.120;2023-04-03T09:17:03;22.50;26.30
60727;DHT22;46577;49.004;12.120;2023-04-03T09:19:44;23.30;26.40
60727;DHT22;46577;49.004;12.120;2023-04-03T09:22:25;24.00;25.70
60727;DHT22;46577;49.004;12.120;2023-04-03T09:25:14;24.50;23.40
60727;DHT22;46577;49.004;12.120;2023-04-03T09:27:41;24.30;22.90
60727;DHT22;46577;49.004;12.120;2023-04-03T09:30:17;24.40;22.80
60727;DHT22;46577;49.004;12.120;2023-04-03T09:32:48;24.30;21.90
60727;DHT22;46577;49.004;12.120;2023-04-03T09:35:30;24.60;22.00
60727;DHT22;46577;49.004;12.120;2023-04-03T09:38:17;24.30;22.40
60727;DHT22;46577;49.004;12.120;2023-04-03T09:41:07;23.90;22.30
60727;DHT22;46577;49.004;12.120;2023-04-03T09:43:38;23.60;22.50
60727;DHT22;46577;49.004;12.120;2023-04-03T09:46:29;24.60;23.00
60727;DHT22;46577;49.004;12.120;2023-04-03T09:48:58;26.50;21.10
60727;DHT22;46577;49.004;12.120;2023-04-03T09:51:33;26.00;20.90
60727;DHT22;46577;49.004;12.120;2023-04-03T09:53:58;26.20;21.20
60727;DHT22;46577;49.004;12.120;2023-04-03T09:56:29;27.40;19.90
60727;DHT22;46577;49.004;12.120;2023-04-03T10:01:25;27.30;20.10
60727;DHT22;46577;49.004;12.120;2023-04-03T10:04:14;26.10;19.80
60727;DHT22;46577;49.004;12.120;2023-04-03T10:06:48;26.50;21.00
60727;DHT22;46577;49.004;12.120;2023-04-03T10:12:04;26.90;19.40
60727;DHT22;46577;49.004;12.120;2023-04-03T10:14:59;26.40;20.10
60727;DHT22;46577;49.004;12.120;2023-04-03T10:23:36;26.80;18.10
60727;DHT22;46577;49.004;12.120;2023-04-03T10:26:17;26.90;18.60
60727;DHT22;46577;49.004;12.120;2023-04-03T10:31:59;26.60;19.10
60727;DHT22;46577;49.004;12.120;2023-04-03T10:34:33;27.10;18.20
60727;DHT22;46577;49.004;12.120;2023-04-03T10:37:14;28.30;19.60
60727;DHT22;46577;49.004;12.120;2023-04-03T10:39:52;28.40;18.70
60727;DHT22;46577;49.004;12.120;2023-04-03T10:42:53;29.20;17.80
60727;DHT22;46577;49.004;12.120;2023-04-03T10:50:52;23.70;17.60
60727;DHT22;46577;49.004;12.120;2023-04-03T10:53:37;20.70;19.30
60727;DHT22;46577;49.004;12.120;2023-04-03T10:56:22;18.80;21.70
60727;DHT22;46577;49.004;12.120;2023-04-03T11:01:47;21.70;21.20
60727;DHT22;46577;49.004;12.120;2023-04-03T11:04:15;23.70;18.60
60727;DHT22;46577;49.004;12.120;2023-04-03T11:06:56;24.90;17.70
60727;DHT22;46577;49.004;12.120;2023-04-03T11:09:26;25.10;18.60
60727;DHT22;46577;49.004;12.120;2023-04-03T11:12:08;25.90;18.70
60727;DHT22;46577;49.004;12.120;2023-04-03T11:14:37;26.00;17.60
60727;DHT22;46577;49.004;12.120;2023-04-03T11:22:25;27.50;17.30
60727;DHT22;46577;49.004;12.120;2023-04-03T11:27:59;27.70;17.00
60727;DHT22;46577;49.004;12.120;2023-04-03T11:33:36;24.60;18.80
60727;DHT22;46577;49.004;12.120;2023-04-03T11:39:24;21.70;19.50
60727;DHT22;46577;49.004;12.120;2023-04-03T11:41:51;18.20;20.90
60727;DHT22;46577;49.004;12.120;2023-04-03T11:44:37;17.00;23.10
60727;DHT22;46577;49.004;12.120;2023-04-03T11:47:05;16.40;23.80
60727;DHT22;46577;49.004;12.120;2023-04-03T12:13:35;20.40;21.30
60727;DHT22;46577;49.004;12.120;2023-04-03T12:16:03;19.80;22.00
60727;DHT22;46577;49.004;12.120;2023-04-03T12:18:44;20.20;21.30
60727;DHT22;46577;49.004;12.120;2023-04-03T12:21:12;20.10;21.90
60727;DHT22;46577;49.004;12.120;2023-04-03T12:23:58;19.70;21.70
60727;DHT22;46577;49.004;12.120;2023-04-03T12:43:43;13.90;25.60
60727;DHT22;46577;49.004;12.120;2023-04-03T12:46:18;13.50;27.00
60727;DHT22;46577;49.004;12.120;2023-04-03T12:54:16;11.80;28.70
60727;DHT22;46577;49.004;12.120;2023-04-03T12:56:44;11.60;29.50
60727;DHT22;46577;49.004;12.120;2023-04-03T12:59:21;11.50;29.50
60727;DHT22;46577;49.004;12.120;2023-04-03T13:01:54;11.40;29.20
60727;DHT22;46577;49.004;12.120;2023-04-03T13:04:21;11.40;29.10
60727;DHT22;46577;49.004;12.120;2023-04-03T13:06:47;10.70;29.20
60727;DHT22;46577;49.004;12.120;2023-04-03T13:09:39;10.40;30.10
60727;DHT22;46577;49.004;12.120;2023-04-03T13:12:14;10.50;30.50
60727;DHT22;46577;49.004;12.120;2023-04-03T13:14:40;10.60;30.00
60727;DHT22;46577;49.004;12.120;2023-04-03T13:17:13;10.90;30.10
60727;DHT22;46577;49.004;12.120;2023-04-03T13:19:40;11.20;29.90
60727;DHT22;46577;49.004;12.120;2023-04-03T13:24:58;10.80;29.90
60727;DHT22;46577;49.004;12.120;2023-04-03T13:27:25;10.60;30.30
60727;DHT22;46577;49.004;12.120;2023-04-03T13:29:57;10.30;30.70
60727;DHT22;46577;49.004;12.120;2023-04-03T13:32:25;10.30;30.70
60727;DHT22;46577;49.004;12.120;2023-04-03T13:34:51;10.30;30.60
60727;DHT22;46577;49.004;12.120;2023-04-03T13:37:31;10.30;31.20
60727;DHT22;46577;49.004;12.120;2023-04-03T13:40:17;9.90;31.50
60727;DHT22;46577;49.004;12.120;2023-04-03T13:42:43;9.90;30.60
60727;DHT22;46577;49.004;12.120;2023-04-03T13:45:26;10.40;32.00
60727;DHT22;46577;49.004;12.120;2023-04-03T13:48:08;10.70;31.10
60727;DHT22;46577;49.004;12.120;2023-04-03T13:51:00;10.70;30.20
60727;DHT22;46577;49.004;12.120;2023-04-03T13:53:27;10.70;29.30
60727;DHT22;46577;49.004;12.120;2023-04-03T13:56:07;10.80;29.70
60727;DHT22;46577;49.004;12.120;2023-04-03T13:58:36;11.20;30.80
60727;DHT22;46577;49.004;12.120;2023-04-03T14:01:07;11.30;30.00
60727;DHT22;46577;49.004;12.120;2023-04-03T14:03:42;11.00;29.40
60727;DHT22;46577;49.004;12.120;2023-04-03T14:06:11;10.70;30.30
60727;DHT22;46577;49.004;12.120;2023-04-03T14:08:36;10.30;30.50
60727;DHT22;46577;49.004;12.120;2023-04-03T14:11:02;9.90;31.90
60727;DHT22;46577;49.004;12.120;2023-04-03T14:13:31;9.80;32.60
60727;DHT22;46577;49.004;12.120;2023-04-03T14:15:57;9.80;33.00
60727;DHT22;46577;49.004;12.120;2023-04-03T14:18:23;10.00;31.50
60727;DHT22;46577;49.004;12.120;2023-04-03T14:20:49;10.10;29.40
60727;DHT22;46577;49.004;12.120;2023-04-03T14:23:15;10.30;30.20
60727;DHT22;46577;49.004;12.120;2023-04-03T14:25:41;10.40;30.50
60727;DHT22;46577;49.004;12.120;2023-04-03T14:28:19;10.00;31.20
60727;DHT22;46577;49.004;12.120;2023-04-03T14:30:48;9.80;32.50
60727;DHT22;46577;49.004;12.120;2023-04-03T14:33:17;9.70;31.50
60727;DHT22;46577;49.004;12.120;2023-04-03T14:35:44;9.90;33.40
60727;DHT22;46577;49.004;12.120;2023-04-03T14:38:29;10.10;31.50
60727;DHT22;46577;49.004;12.120;2023-04-03T14:40:56;9.70;33.30
60727;DHT22;46577;49.004;12.120;2023-04-03T14:43:22;9.40;32.60
60727;DHT22;46577;49.004;12.120;2023-04-03T14:45:49;9.10;32.90
60727;DHT22;46577;49.004;12.120;2023-04-03T14:48:20;8.90;32.50
60727;DHT22;46577;49.004;12.120;2023-04-03T14:50:47;8.60;34.20
60727;DHT22;46577;49.004;12.120;2023-04-03T14:53:13;8.40;34.60
60727;DHT22;46577;49.004;12.120;2023-04-03T14:55:42;8.50;34.30
60727;DHT22;46577;49.004;12.120;2023-04-03T14:58:15;8.50;34.70
60727;DHT22;46577;49.004;12.120;2023-04-03T15:00:42;8.40;34.60
60727;DHT22;46577;49.004;12.120;2023-04-03T15:03:26;8.80;35.10
60727;DHT22;46577;49.004;12.120;2023-04-03T15:05:52;8.80;34.50
60727;DHT22;46577;49.004;12.120;2023-04-03T15:08:21;9.10;33.30
60727;DHT22;46577;49.004;12.120;2023-04-03T15:10:48;9.30;32.80
60727;DHT22;46577;49.004;12.120;2023-04-03T15:13:14;9.40;33.30
60727;DHT22;46577;49.004;12.120;2023-04-03T15:15:40;9.00;33.20
60727;DHT22;46577;49.004;12.120;2023-04-03T15:18:06;9.00;33.60
60727;DHT22;46577;49.004;12.120;2023-04-03T15:20:32;8.90;34.70
60727;DHT22;46577;49.004;12.120;2023-04-03T15:22:59;8.90;34.90
60727;DHT22;46577;49.004;12.120;2023-04-03T15:25:29;9.00;34.30
60727;DHT22;46577;49.004;12.120;2023-04-03T15:27:57;8.90;34.10
60727;DHT22;46577;49.004;12.120;2023-04-03T15:30:23;8.50;35.60
60727;DHT22;46577;49.004;12.120;2023-04-03T15:32:49;8.20;34.10
60727;DHT22;46577;49.004;12.120;2023-04-03T15:35:15;7.90;35.30
60727;DHT22;46577;49.004;12.120;2023-04-03T15:37:41;7.80;35.60
60727;DHT22;46577;49.004;12.120;2023-04-03T15:40:07;7.60;35.20
60727;DHT22;46577;49.004;12.120;2023-04-03T15:42:33;7.70;35.90
60727;DHT22;46577;49.004;12.120;2023-04-03T15:44:58;8.10;37.10
60727;DHT22;46577;49.004;12.120;2023-04-03T15:47:25;8.30;35.30
60727;DHT22;46577;49.004;12.120;2023-04-03T15:49:51;8.30;35.60
60727;DHT22;46577;49.004;12.120;2023-04-03T15:52:17;8.30;34.60
60727;DHT22;46577;49.004;12.120;2023-04-03T15:54:43;8.20;35.10
60727;DHT22;46577;49.004;12.120;2023-04-03T15:57:09;8.20;36.00
60727;DHT22;46577;49.004;12.120;2023-04-03T15:59:34;8.10;36.30
60727;DHT22;46577;49.004;12.120;2023-04-03T16:02:01;8.00;37.10
60727;DHT22;46577;49.004;12.120;2023-04-03T16:04:29;7.80;36.70
60727;DHT22;46577;49.004;12.120;2023-04-03T16:06:55;7.80;36.90
60727;DHT22;46577;49.004;12.120;2023-04-03T16:09:21;7.70;36.30
60727;DHT22;46577;49.004;12.120;2023-04-03T16:11:46;7.60;36.50
60727;DHT22;46577;49.004;12.120;2023-04-03T16:14:12;7.40;37.50
60727;DHT22;46577;49.004;12.120;2023-04-03T16:16:38;7.40;39.40
60727;DHT22;46577;49.004;12.120;2023-04-03T16:19:04;7.30;38.00
60727;DHT22;46577;49.004;12.120;2023-04-03T16:21:30;7.10;39.00
60727;DHT22;46577;49.004;12.120;2023-04-03T16:23:58;7.00;38.20
60727;DHT22;46577;49.004;12.120;2023-04-03T16:26:23;6.90;38.50
60727;DHT22;46577;49.004;12.120;2023-04-03T16:28:49;6.70;38.30
60727;DHT22;46577;49.004;12.120;2023-04-03T16:31:14;6.40;38.70
60727;DHT22;46577;49.004;12.120;2023-04-03T16:33:40;6.30;39.00
60727;DHT22;46577;49.004;12.120;2023-04-03T16:36:06;6.10;39.50
60727;DHT22;46577;49.004;12.120;2023-04-03T16:38:32;5.90;39.40
60727;DHT22;46577;49.004;12.120;2023-04-03T16:40:57;5.80;39.20
60727;DHT22;46577;49.004;12.120;2023-04-03T16:43:25;5.90;40.70
60727;DHT22;46577;49.004;12.120;2023-04-03T16:45:51;5.90;41.10
60727;DHT22;46577;49.004;12.120;2023-04-03T16:48:17;5.80;40.50
60727;DHT22;46577;49.004;12.120;2023-04-03T16:50:46;5.80;41.20
60727;DHT22;46577;49.004;12.120;2023-04-03T16:53:13;5.60;40.30
60727;DHT22;46577;49.004;12.120;2023-04-03T16:55:39;5.50;40.60
60727;DHT22;46577;49.004;12.120;2023-04-03T16:58:05;5.40;41.50
60727;DHT22;46577;49.004;12.120;2023-04-03T17:00:31;5.40;42.60
60727;DHT22;46577;49.004;12.120;2023-04-03T17:02:57;5.30;42.70
60727;DHT22;46577;49.004;12.120;2023-04-03T17:05:23;5.20;43.60
60727;DHT22;46577;49.004;12.120;2023-04-03T17:07:50;5.10;42.70
60727;DHT22;46577;49.004;12.120;2023-04-03T17:10:15;5.00;43.50
60727;DHT22;46577;49.004;12.120;2023-04-03T17:12:41;5.00;43.50
60727;DHT22;46577;49.004;12.120;2023-04-03T17:15:07;5.00;42.80
60727;DHT22;46577;49.004;12.120;2023-04-03T17:17:33;4.90;43.30
60727;DHT22;46577;49.004;12.120;2023-04-03T17:19:58;4.90;44.70
60727;DHT22;46577;49.004;12.120;2023-04-03T17:22:24;4.90;44.70
60727;DHT22;46577;49.004;12.120;2023-04-03T17:24:50;4.90;44.30